• Join FlightAware (Why Join?)
  • Login
  • US Flag 
02:16PM EDT


 

Airport Tracker/Info


-or-


 

Live Flight TrackerFlight Track Log ✈ N1926A ✈ 21-Jul-2013 ✈ KECP - 41A

Flight Track Log - Related Links

Times and Time Zones

All times are in EDT time to prevent confusion due to time zone crossing. See the N1926A flight status page for this flight to view local times or setup timezone preferences in your user account.

Time Position Orientation Groundspeed Altitude Reporting Facility
EDT Latitude Longitude Course Direction KTS MPH feet Rate Location/Type
04:30PM 30.4206 -85.7375 358° North 162 186 7,000  Level Jacksonville Center
04:31PM 30.4731 -85.7269 10° North 192 221 8,900 900 Climbing Jacksonville Center
04:33PM 30.5400 -85.7144 North 247 284 9,100  Climbing Jacksonville Center
04:34PM 30.7676 -85.8019 358° North  Level FlightAware Approximate
04:34PM 30.6131 -85.7142 360° North 257 296 9,000  Level Jacksonville Center
04:35PM 30.8274 -85.8041 358° North  Level FlightAware Approximate
04:35PM 30.6819 -85.7211 355° North 259 298 9,100  Level Jacksonville Center
04:36PM 30.8872 -85.8063 358° North  Level FlightAware Approximate
04:36PM 30.7567 -85.7331 352° North 261 300 9,100  Level Jacksonville Center
04:37PM 30.8256 -85.7422 353° North 257 296 9,100  Level Jacksonville Center
04:38PM 30.9006 -85.7494 355° North 257 296 9,100  Level Jacksonville Center
04:39PM 30.9692 -85.7564 355° North 258 297 9,100  Level Jacksonville Center
04:40PM 31.0444 -85.7536 North 260 299 9,100  Level Jacksonville Center
04:41PM 31.1217 -85.7561 358° North 261 300 9,100  Level Jacksonville Center
04:42PM 31.1792 -85.7919 332° Northwest 244 281 9,100  Level Jacksonville Center
04:43PM 31.2431 -85.8350 330° Northwest 244 281 9,100  Level Jacksonville Center
04:44PM 31.2986 -85.8733 329° Northwest 245 282 9,100  Level Jacksonville Center
04:45PM 31.3606 -85.8922 345° North 257 296 9,100  Level Jacksonville Center
04:46PM 31.4356 -85.8997 355° North 260 299 9,100  Level Jacksonville Center
04:47PM 31.5108 -85.9044 357° North 259 298 9,100  Level Jacksonville Center
04:48PM 31.5817 -85.9019 North 264 304 9,100  Level Jacksonville Center
04:49PM 31.6572 -85.8922 North 264 304 9,100  Level Jacksonville Center
04:50PM 31.7283 -85.8822 North 264 304 9,100  Level Jacksonville Center
04:51PM 31.8058 -85.8700 North 264 304 9,100  Level Jacksonville Center
04:52PM 31.8750 -85.8553 10° North 264 304 9,100  Level Jacksonville Center
04:54PM 31.9819 -85.8333 North  Level FlightAware Approximate
05:01PM 32.3968 -85.8500 North  Level FlightAware Approximate
05:02PM 32.4557 -85.8556 348° North  Level FlightAware Approximate
05:03PM 32.5000 -85.8667 North  Level FlightAware Approximate